sensor_id;sensor_type;location;lat;lon;timestamp;P1;durP1;ratioP1;P2;durP2;ratioP2
50367;SDS011;36281;34.132;-118.018;2023-07-31T00:00:52;17.45;;;10.25;;
50367;SDS011;36281;34.132;-118.018;2023-07-31T00:03:21;11.15;;;9.63;;
50367;SDS011;36281;34.132;-118.018;2023-07-31T00:05:52;15.15;;;9.95;;
50367;SDS011;36281;34.132;-118.018;2023-07-31T00:08:21;10.20;;;9.10;;
50367;SDS011;36281;34.132;-118.018;2023-07-31T00:10:51;11.82;;;9.25;;
50367;SDS011;36281;34.132;-118.018;2023-07-31T00:13:20;13.10;;;10.23;;
50367;SDS011;36281;34.132;-118.018;2023-07-31T00:15:49;13.18;;;9.45;;
50367;SDS011;36281;34.132;-118.018;2023-07-31T00:18:18;12.30;;;9.93;;
50367;SDS011;36281;34.132;-118.018;2023-07-31T00:20:48;11.50;;;10.13;;
50367;SDS011;36281;34.132;-118.018;2023-07-31T00:23:18;12.13;;;10.00;;
50367;SDS011;36281;34.132;-118.018;2023-07-31T00:25:47;11.63;;;10.40;;
50367;SDS011;36281;34.132;-118.018;2023-07-31T00:28:16;11.55;;;10.10;;
50367;SDS011;36281;34.132;-118.018;2023-07-31T00:30:45;13.23;;;10.13;;
50367;SDS011;36281;34.132;-118.018;2023-07-31T00:33:14;12.00;;;9.80;;
50367;SDS011;36281;34.132;-118.018;2023-07-31T00:35:43;12.32;;;10.00;;
50367;SDS011;36281;34.132;-118.018;2023-07-31T00:38:12;11.73;;;10.50;;
50367;SDS011;36281;34.132;-118.018;2023-07-31T00:40:43;11.80;;;10.18;;
50367;SDS011;36281;34.132;-118.018;2023-07-31T00:43:14;13.50;;;10.75;;
50367;SDS011;36281;34.132;-118.018;2023-07-31T00:45:43;14.85;;;10.88;;
50367;SDS011;36281;34.132;-118.018;2023-07-31T00:48:12;13.10;;;10.65;;
50367;SDS011;36281;34.132;-118.018;2023-07-31T00:50:41;13.45;;;10.68;;
50367;SDS011;36281;34.132;-118.018;2023-07-31T00:53:11;12.38;;;10.38;;
50367;SDS011;36281;34.132;-118.018;2023-07-31T00:55:40;12.52;;;11.20;;
50367;SDS011;36281;34.132;-118.018;2023-07-31T00:58:12;15.65;;;11.20;;
50367;SDS011;36281;34.132;-118.018;2023-07-31T01:00:41;12.65;;;11.18;;
50367;SDS011;36281;34.132;-118.018;2023-07-31T01:03:10;11.70;;;10.48;;
50367;SDS011;36281;34.132;-118.018;2023-07-31T01:05:43;14.35;;;11.32;;
50367;SDS011;36281;34.132;-118.018;2023-07-31T01:08:18;13.80;;;11.73;;
50367;SDS011;36281;34.132;-118.018;2023-07-31T01:10:56;15.27;;;11.55;;
50367;SDS011;36281;34.132;-118.018;2023-07-31T01:13:28;13.30;;;11.57;;
50367;SDS011;36281;34.132;-118.018;2023-07-31T01:15:58;12.25;;;10.98;;
50367;SDS011;36281;34.132;-118.018;2023-07-31T01:18:27;14.40;;;11.55;;
50367;SDS011;36281;34.132;-118.018;2023-07-31T01:20:57;12.35;;;11.05;;
50367;SDS011;36281;34.132;-118.018;2023-07-31T01:24:00;14.95;;;11.45;;
50367;SDS011;36281;34.132;-118.018;2023-07-31T01:26:53;13.32;;;11.40;;
50367;SDS011;36281;34.132;-118.018;2023-07-31T01:29:31;12.95;;;10.82;;
50367;SDS011;36281;34.132;-118.018;2023-07-31T01:32:06;13.75;;;11.18;;
50367;SDS011;36281;34.132;-118.018;2023-07-31T01:34:37;11.93;;;10.57;;
50367;SDS011;36281;34.132;-118.018;2023-07-31T01:37:07;12.73;;;10.75;;
50367;SDS011;36281;34.132;-118.018;2023-07-31T01:39:36;17.70;;;11.18;;
50367;SDS011;36281;34.132;-118.018;2023-07-31T01:42:07;15.23;;;10.75;;
50367;SDS011;36281;34.132;-118.018;2023-07-31T01:44:36;14.93;;;11.02;;
50367;SDS011;36281;34.132;-118.018;2023-07-31T01:47:05;12.90;;;10.38;;
50367;SDS011;36281;34.132;-118.018;2023-07-31T01:49:34;15.68;;;11.02;;
50367;SDS011;36281;34.132;-118.018;2023-07-31T01:52:04;14.63;;;10.57;;
50367;SDS011;36281;34.132;-118.018;2023-07-31T01:54:33;16.55;;;10.77;;
50367;SDS011;36281;34.132;-118.018;2023-07-31T01:57:04;14.20;;;10.13;;
50367;SDS011;36281;34.132;-118.018;2023-07-31T01:59:35;15.48;;;9.88;;
50367;SDS011;36281;34.132;-118.018;2023-07-31T02:02:05;15.38;;;9.93;;
50367;SDS011;36281;34.132;-118.018;2023-07-31T02:04:34;15.10;;;10.25;;
50367;SDS011;36281;34.132;-118.018;2023-07-31T02:07:03;13.95;;;9.70;;
50367;SDS011;36281;34.132;-118.018;2023-07-31T02:09:33;15.98;;;9.82;;
50367;SDS011;36281;34.132;-118.018;2023-07-31T02:12:02;14.65;;;9.50;;
50367;SDS011;36281;34.132;-118.018;2023-07-31T02:14:33;11.82;;;9.50;;
50367;SDS011;36281;34.132;-118.018;2023-07-31T02:17:02;13.23;;;9.73;;
50367;SDS011;36281;34.132;-118.018;2023-07-31T02:19:31;13.20;;;9.73;;
50367;SDS011;36281;34.132;-118.018;2023-07-31T02:22:00;14.23;;;9.38;;
50367;SDS011;36281;34.132;-118.018;2023-07-31T02:24:29;12.15;;;8.85;;
50367;SDS011;36281;34.132;-118.018;2023-07-31T02:26:59;15.05;;;9.05;;
50367;SDS011;36281;34.132;-118.018;2023-07-31T02:29:28;13.20;;;9.27;;
50367;SDS011;36281;34.132;-118.018;2023-07-31T02:31:59;15.23;;;9.20;;
50367;SDS011;36281;34.132;-118.018;2023-07-31T02:34:28;13.80;;;8.90;;
50367;SDS011;36281;34.132;-118.018;2023-07-31T02:36:57;14.13;;;9.20;;
50367;SDS011;36281;34.132;-118.018;2023-07-31T02:39:26;15.43;;;9.43;;
50367;SDS011;36281;34.132;-118.018;2023-07-31T02:41:55;15.13;;;8.80;;
50367;SDS011;36281;34.132;-118.018;2023-07-31T02:44:24;15.45;;;9.32;;
50367;SDS011;36281;34.132;-118.018;2023-07-31T02:46:53;13.15;;;8.77;;
50367;SDS011;36281;34.132;-118.018;2023-07-31T02:49:24;13.13;;;8.98;;
50367;SDS011;36281;34.132;-118.018;2023-07-31T02:51:53;11.73;;;8.70;;
50367;SDS011;36281;34.132;-118.018;2023-07-31T02:54:22;12.00;;;8.48;;
50367;SDS011;36281;34.132;-118.018;2023-07-31T02:56:51;10.80;;;7.95;;
50367;SDS011;36281;34.132;-118.018;2023-07-31T02:59:20;13.48;;;8.23;;
50367;SDS011;36281;34.132;-118.018;2023-07-31T03:01:49;12.43;;;8.48;;
50367;SDS011;36281;34.132;-118.018;2023-07-31T03:04:18;10.82;;;8.45;;
50367;SDS011;36281;34.132;-118.018;2023-07-31T03:06:49;13.75;;;8.85;;
50367;SDS011;36281;34.132;-118.018;2023-07-31T03:09:18;12.05;;;8.00;;
50367;SDS011;36281;34.132;-118.018;2023-07-31T03:11:47;17.33;;;8.00;;
50367;SDS011;36281;34.132;-118.018;2023-07-31T03:14:16;13.43;;;8.70;;
50367;SDS011;36281;34.132;-118.018;2023-07-31T03:16:45;9.65;;;7.70;;
50367;SDS011;36281;34.132;-118.018;2023-07-31T03:19:14;9.10;;;7.47;;
50367;SDS011;36281;34.132;-118.018;2023-07-31T03:21:43;11.63;;;7.82;;
50367;SDS011;36281;34.132;-118.018;2023-07-31T03:24:13;13.10;;;7.88;;
50367;SDS011;36281;34.132;-118.018;2023-07-31T03:26:42;11.25;;;7.95;;
50367;SDS011;36281;34.132;-118.018;2023-07-31T03:29:11;9.38;;;7.68;;
50367;SDS011;36281;34.132;-118.018;2023-07-31T03:31:40;13.15;;;8.30;;
50367;SDS011;36281;34.132;-118.018;2023-07-31T03:34:10;14.05;;;8.65;;
50367;SDS011;36281;34.132;-118.018;2023-07-31T03:36:39;9.93;;;7.80;;
50367;SDS011;36281;34.132;-118.018;2023-07-31T03:39:08;13.10;;;8.88;;
50367;SDS011;36281;34.132;-118.018;2023-07-31T03:41:39;12.20;;;8.57;;
50367;SDS011;36281;34.132;-118.018;2023-07-31T03:44:08;12.98;;;8.93;;
50367;SDS011;36281;34.132;-118.018;2023-07-31T03:46:37;12.70;;;8.27;;
50367;SDS011;36281;34.132;-118.018;2023-07-31T03:49:06;13.73;;;8.38;;
50367;SDS011;36281;34.132;-118.018;2023-07-31T03:51:36;12.45;;;9.20;;
50367;SDS011;36281;34.132;-118.018;2023-07-31T03:54:05;13.02;;;8.98;;
50367;SDS011;36281;34.132;-118.018;2023-07-31T03:56:35;10.52;;;8.52;;
50367;SDS011;36281;34.132;-118.018;2023-07-31T03:59:08;12.10;;;9.00;;
50367;SDS011;36281;34.132;-118.018;2023-07-31T04:01:37;10.00;;;8.30;;
50367;SDS011;36281;34.132;-118.018;2023-07-31T04:04:06;10.75;;;8.60;;
50367;SDS011;36281;34.132;-118.018;2023-07-31T04:09:10;14.45;;;8.75;;
50367;SDS011;36281;34.132;-118.018;2023-07-31T04:11:39;11.30;;;8.30;;
50367;SDS011;36281;34.132;-118.018;2023-07-31T04:14:10;13.25;;;8.60;;
50367;SDS011;36281;34.132;-118.018;2023-07-31T04:16:39;12.63;;;8.45;;
50367;SDS011;36281;34.132;-118.018;2023-07-31T04:19:08;15.73;;;8.90;;
50367;SDS011;36281;34.132;-118.018;2023-07-31T04:21:38;12.15;;;8.50;;
50367;SDS011;36281;34.132;-118.018;2023-07-31T04:24:08;12.43;;;8.55;;
50367;SDS011;36281;34.132;-118.018;2023-07-31T04:26:37;13.95;;;8.25;;
50367;SDS011;36281;34.132;-118.018;2023-07-31T04:29:06;15.10;;;8.98;;
50367;SDS011;36281;34.132;-118.018;2023-07-31T04:31:37;12.40;;;8.48;;
50367;SDS011;36281;34.132;-118.018;2023-07-31T04:34:06;12.48;;;8.77;;
50367;SDS011;36281;34.132;-118.018;2023-07-31T04:36:35;16.30;;;9.00;;
50367;SDS011;36281;34.132;-118.018;2023-07-31T04:39:04;12.98;;;8.88;;
50367;SDS011;36281;34.132;-118.018;2023-07-31T04:41:33;15.90;;;9.15;;
50367;SDS011;36281;34.132;-118.018;2023-07-31T04:44:02;13.20;;;9.02;;
50367;SDS011;36281;34.132;-118.018;2023-07-31T04:46:31;14.45;;;9.70;;
50367;SDS011;36281;34.132;-118.018;2023-07-31T04:49:02;14.25;;;9.27;;
50367;SDS011;36281;34.132;-118.018;2023-07-31T04:51:31;17.58;;;9.63;;
50367;SDS011;36281;34.132;-118.018;2023-07-31T04:54:00;15.63;;;9.68;;
50367;SDS011;36281;34.132;-118.018;2023-07-31T04:56:29;15.57;;;9.68;;
50367;SDS011;36281;34.132;-118.018;2023-07-31T04:58:59;16.50;;;9.60;;
50367;SDS011;36281;34.132;-118.018;2023-07-31T05:01:28;16.35;;;9.75;;
50367;SDS011;36281;34.132;-118.018;2023-07-31T05:03:57;15.23;;;9.15;;
50367;SDS011;36281;34.132;-118.018;2023-07-31T05:06:28;12.68;;;8.95;;
50367;SDS011;36281;34.132;-118.018;2023-07-31T05:08:57;15.25;;;9.07;;
50367;SDS011;36281;34.132;-118.018;2023-07-31T05:11:26;15.00;;;9.52;;
50367;SDS011;36281;34.132;-118.018;2023-07-31T05:13:55;15.07;;;9.50;;
50367;SDS011;36281;34.132;-118.018;2023-07-31T05:16:24;17.00;;;9.98;;
50367;SDS011;36281;34.132;-118.018;2023-07-31T05:18:53;14.35;;;9.95;;
50367;SDS011;36281;34.132;-118.018;2023-07-31T05:21:22;15.98;;;10.35;;
50367;SDS011;36281;34.132;-118.018;2023-07-31T05:23:53;15.23;;;10.80;;
50367;SDS011;36281;34.132;-118.018;2023-07-31T05:26:22;14.02;;;10.55;;
50367;SDS011;36281;34.132;-118.018;2023-07-31T05:28:51;15.55;;;11.10;;
50367;SDS011;36281;34.132;-118.018;2023-07-31T05:31:20;19.48;;;11.52;;
50367;SDS011;36281;34.132;-118.018;2023-07-31T05:33:50;18.13;;;11.95;;
50367;SDS011;36281;34.132;-118.018;2023-07-31T05:36:19;18.17;;;11.20;;
50367;SDS011;36281;34.132;-118.018;2023-07-31T05:38:48;18.25;;;12.10;;
50367;SDS011;36281;34.132;-118.018;2023-07-31T05:41:19;16.55;;;11.55;;
50367;SDS011;36281;34.132;-118.018;2023-07-31T05:43:48;20.90;;;12.18;;
50367;SDS011;36281;34.132;-118.018;2023-07-31T05:46:17;17.58;;;10.93;;
50367;SDS011;36281;34.132;-118.018;2023-07-31T05:48:46;18.02;;;11.73;;
50367;SDS011;36281;34.132;-118.018;2023-07-31T05:51:15;19.67;;;11.43;;
50367;SDS011;36281;34.132;-118.018;2023-07-31T05:53:44;17.48;;;11.32;;
50367;SDS011;36281;34.132;-118.018;2023-07-31T05:56:13;17.92;;;12.80;;
50367;SDS011;36281;34.132;-118.018;2023-07-31T05:58:43;20.63;;;13.07;;
50367;SDS011;36281;34.132;-118.018;2023-07-31T06:01:12;17.02;;;11.65;;
50367;SDS011;36281;34.132;-118.018;2023-07-31T06:03:43;17.88;;;11.85;;
50367;SDS011;36281;34.132;-118.018;2023-07-31T06:06:12;18.10;;;11.95;;
50367;SDS011;36281;34.132;-118.018;2023-07-31T06:08:41;17.95;;;11.63;;
50367;SDS011;36281;34.132;-118.018;2023-07-31T06:11:11;16.45;;;11.63;;
50367;SDS011;36281;34.132;-118.018;2023-07-31T06:13:40;20.65;;;12.35;;
50367;SDS011;36281;34.132;-118.018;2023-07-31T06:16:11;20.58;;;12.88;;
50367;SDS011;36281;34.132;-118.018;2023-07-31T06:18:41;17.20;;;11.48;;
50367;SDS011;36281;34.132;-118.018;2023-07-31T06:21:10;20.60;;;11.93;;
50367;SDS011;36281;34.132;-118.018;2023-07-31T06:23:39;17.00;;;12.10;;
50367;SDS011;36281;34.132;-118.018;2023-07-31T06:26:08;22.63;;;11.93;;
50367;SDS011;36281;34.132;-118.018;2023-07-31T06:28:37;19.85;;;12.73;;
50367;SDS011;36281;34.132;-118.018;2023-07-31T06:31:07;22.23;;;12.82;;
50367;SDS011;36281;34.132;-118.018;2023-07-31T06:33:37;14.38;;;10.98;;
50367;SDS011;36281;34.132;-118.018;2023-07-31T06:36:06;17.65;;;11.95;;
50367;SDS011;36281;34.132;-118.018;2023-07-31T06:38:35;18.13;;;11.85;;
50367;SDS011;36281;34.132;-118.018;2023-07-31T06:41:05;22.00;;;12.23;;
50367;SDS011;36281;34.132;-118.018;2023-07-31T06:43:34;16.25;;;12.07;;
50367;SDS011;36281;34.132;-118.018;2023-07-31T06:46:04;22.10;;;12.50;;
50367;SDS011;36281;34.132;-118.018;2023-07-31T06:48:34;19.50;;;11.90;;
50367;SDS011;36281;34.132;-118.018;2023-07-31T06:51:05;18.27;;;12.48;;
50367;SDS011;36281;34.132;-118.018;2023-07-31T06:53:34;17.27;;;11.65;;
50367;SDS011;36281;34.132;-118.018;2023-07-31T06:56:03;19.42;;;11.38;;
50367;SDS011;36281;34.132;-118.018;2023-07-31T06:58:32;16.02;;;12.23;;
50367;SDS011;36281;34.132;-118.018;2023-07-31T07:01:02;21.95;;;12.18;;
50367;SDS011;36281;34.132;-118.018;2023-07-31T07:03:31;22.80;;;12.15;;
50367;SDS011;36281;34.132;-118.018;2023-07-31T07:06:02;17.55;;;11.57;;
50367;SDS011;36281;34.132;-118.018;2023-07-31T07:08:31;15.55;;;11.77;;
50367;SDS011;36281;34.132;-118.018;2023-07-31T07:11:00;18.20;;;12.00;;
50367;SDS011;36281;34.132;-118.018;2023-07-31T07:13:29;17.23;;;11.60;;
50367;SDS011;36281;34.132;-118.018;2023-07-31T07:15:58;19.67;;;11.23;;
50367;SDS011;36281;34.132;-118.018;2023-07-31T07:18:27;15.73;;;11.18;;
50367;SDS011;36281;34.132;-118.018;2023-07-31T07:20:56;18.92;;;12.35;;
50367;SDS011;36281;34.132;-118.018;2023-07-31T07:23:27;14.75;;;11.15;;
50367;SDS011;36281;34.132;-118.018;2023-07-31T07:25:56;16.23;;;11.43;;
50367;SDS011;36281;34.132;-118.018;2023-07-31T07:28:25;16.77;;;10.98;;
50367;SDS011;36281;34.132;-118.018;2023-07-31T07:30:56;15.95;;;10.85;;
50367;SDS011;36281;34.132;-118.018;2023-07-31T07:33:26;16.75;;;11.80;;
50367;SDS011;36281;34.132;-118.018;2023-07-31T07:35:55;18.10;;;12.00;;
50367;SDS011;36281;34.132;-118.018;2023-07-31T07:38:29;20.42;;;11.95;;
50367;SDS011;36281;34.132;-118.018;2023-07-31T07:40:58;18.08;;;11.25;;
50367;SDS011;36281;34.132;-118.018;2023-07-31T07:43:27;17.52;;;10.55;;
50367;SDS011;36281;34.132;-118.018;2023-07-31T07:45:56;18.52;;;11.18;;
50367;SDS011;36281;34.132;-118.018;2023-07-31T07:48:25;19.77;;;11.00;;
50367;SDS011;36281;34.132;-118.018;2023-07-31T07:50:54;15.27;;;10.93;;
50367;SDS011;36281;34.132;-118.018;2023-07-31T07:53:23;16.48;;;10.38;;
50367;SDS011;36281;34.132;-118.018;2023-07-31T07:55:54;17.45;;;11.82;;
50367;SDS011;36281;34.132;-118.018;2023-07-31T07:58:23;17.60;;;10.38;;
50367;SDS011;36281;34.132;-118.018;2023-07-31T08:00:52;16.15;;;10.00;;
50367;SDS011;36281;34.132;-118.018;2023-07-31T08:03:21;19.27;;;11.00;;
50367;SDS011;36281;34.132;-118.018;2023-07-31T08:05:50;14.07;;;10.02;;
50367;SDS011;36281;34.132;-118.018;2023-07-31T08:08:19;18.02;;;10.02;;
50367;SDS011;36281;34.132;-118.018;2023-07-31T08:10:48;19.67;;;10.85;;
50367;SDS011;36281;34.132;-118.018;2023-07-31T08:13:19;16.38;;;10.13;;
50367;SDS011;36281;34.132;-118.018;2023-07-31T08:15:48;20.88;;;10.98;;
50367;SDS011;36281;34.132;-118.018;2023-07-31T08:18:17;17.67;;;10.02;;
50367;SDS011;36281;34.132;-118.018;2023-07-31T08:20:46;17.50;;;10.18;;
50367;SDS011;36281;34.132;-118.018;2023-07-31T08:23:15;17.30;;;10.57;;
50367;SDS011;36281;34.132;-118.018;2023-07-31T08:25:44;17.35;;;10.32;;
50367;SDS011;36281;34.132;-118.018;2023-07-31T08:28:14;17.45;;;10.38;;
50367;SDS011;36281;34.132;-118.018;2023-07-31T08:30:45;15.95;;;10.20;;
50367;SDS011;36281;34.132;-118.018;2023-07-31T08:33:14;16.58;;;9.93;;
50367;SDS011;36281;34.132;-118.018;2023-07-31T08:35:56;17.05;;;10.32;;
50367;SDS011;36281;34.132;-118.018;2023-07-31T08:38:43;19.15;;;9.77;;
50367;SDS011;36281;34.132;-118.018;2023-07-31T08:41:13;14.55;;;9.95;;
50367;SDS011;36281;34.132;-118.018;2023-07-31T08:43:44;19.42;;;10.05;;
50367;SDS011;36281;34.132;-118.018;2023-07-31T08:46:16;14.90;;;10.43;;
50367;SDS011;36281;34.132;-118.018;2023-07-31T08:48:45;15.30;;;10.30;;
50367;SDS011;36281;34.132;-118.018;2023-07-31T08:51:15;13.68;;;9.52;;
50367;SDS011;36281;34.132;-118.018;2023-07-31T08:53:45;15.45;;;10.02;;
50367;SDS011;36281;34.132;-118.018;2023-07-31T08:56:14;16.05;;;10.00;;
50367;SDS011;36281;34.132;-118.018;2023-07-31T08:58:44;14.30;;;9.80;;
50367;SDS011;36281;34.132;-118.018;2023-07-31T09:01:17;15.52;;;9.60;;
50367;SDS011;36281;34.132;-118.018;2023-07-31T09:03:46;18.02;;;10.70;;
50367;SDS011;36281;34.132;-118.018;2023-07-31T09:06:18;16.65;;;10.48;;
50367;SDS011;36281;34.132;-118.018;2023-07-31T09:08:52;17.58;;;9.88;;
50367;SDS011;36281;34.132;-118.018;2023-07-31T09:11:21;16.05;;;9.38;;
50367;SDS011;36281;34.132;-118.018;2023-07-31T09:13:52;17.48;;;10.18;;
50367;SDS011;36281;34.132;-118.018;2023-07-31T09:16:29;18.25;;;10.70;;
50367;SDS011;36281;34.132;-118.018;2023-07-31T09:21:33;18.42;;;10.60;;
50367;SDS011;36281;34.132;-118.018;2023-07-31T09:24:07;17.48;;;10.77;;
50367;SDS011;36281;34.132;-118.018;2023-07-31T09:26:36;17.70;;;10.70;;
50367;SDS011;36281;34.132;-118.018;2023-07-31T09:29:06;17.73;;;10.75;;
50367;SDS011;36281;34.132;-118.018;2023-07-31T09:31:48;15.57;;;10.43;;
50367;SDS011;36281;34.132;-118.018;2023-07-31T09:34:17;16.65;;;10.23;;
50367;SDS011;36281;34.132;-118.018;2023-07-31T09:36:46;15.20;;;9.90;;
50367;SDS011;36281;34.132;-118.018;2023-07-31T09:39:16;16.58;;;10.68;;
50367;SDS011;36281;34.132;-118.018;2023-07-31T09:41:47;15.98;;;10.43;;
50367;SDS011;36281;34.132;-118.018;2023-07-31T09:44:26;17.42;;;10.95;;
50367;SDS011;36281;34.132;-118.018;2023-07-31T09:47:08;19.55;;;11.10;;
50367;SDS011;36281;34.132;-118.018;2023-07-31T09:49:52;16.35;;;11.85;;
50367;SDS011;36281;34.132;-118.018;2023-07-31T09:52:21;14.82;;;11.05;;
50367;SDS011;36281;34.132;-118.018;2023-07-31T09:54:53;18.15;;;11.43;;
50367;SDS011;36281;34.132;-118.018;2023-07-31T09:57:22;18.10;;;11.40;;
50367;SDS011;36281;34.132;-118.018;2023-07-31T09:59:53;19.00;;;11.80;;
50367;SDS011;36281;34.132;-118.018;2023-07-31T10:02:25;19.25;;;11.90;;
50367;SDS011;36281;34.132;-118.018;2023-07-31T10:04:57;16.95;;;11.57;;
50367;SDS011;36281;34.132;-118.018;2023-07-31T10:07:29;15.63;;;11.52;;
50367;SDS011;36281;34.132;-118.018;2023-07-31T10:09:59;21.42;;;11.75;;
50367;SDS011;36281;34.132;-118.018;2023-07-31T10:12:30;17.17;;;11.38;;
50367;SDS011;36281;34.132;-118.018;2023-07-31T10:15:02;18.15;;;11.95;;
50367;SDS011;36281;34.132;-118.018;2023-07-31T10:17:34;20.25;;;12.13;;
50367;SDS011;36281;34.132;-118.018;2023-07-31T10:20:05;17.35;;;11.77;;
50367;SDS011;36281;34.132;-118.018;2023-07-31T10:22:36;18.85;;;12.82;;
50367;SDS011;36281;34.132;-118.018;2023-07-31T10:25:06;19.67;;;11.95;;
50367;SDS011;36281;34.132;-118.018;2023-07-31T10:27:38;18.35;;;11.90;;
50367;SDS011;36281;34.132;-118.018;2023-07-31T10:30:08;20.23;;;11.38;;
50367;SDS011;36281;34.132;-118.018;2023-07-31T10:32:45;20.42;;;11.48;;
50367;SDS011;36281;34.132;-118.018;2023-07-31T10:35:16;18.00;;;12.10;;
50367;SDS011;36281;34.132;-118.018;2023-07-31T10:37:46;20.17;;;11.48;;
50367;SDS011;36281;34.132;-118.018;2023-07-31T10:40:16;17.52;;;11.60;;
50367;SDS011;36281;34.132;-118.018;2023-07-31T10:42:49;20.58;;;11.60;;
50367;SDS011;36281;34.132;-118.018;2023-07-31T10:45:30;23.88;;;12.35;;
50367;SDS011;36281;34.132;-118.018;2023-07-31T10:48:02;18.20;;;11.82;;
50367;SDS011;36281;34.132;-118.018;2023-07-31T10:50:32;15.80;;;11.43;;
50367;SDS011;36281;34.132;-118.018;2023-07-31T10:53:06;17.65;;;12.15;;
50367;SDS011;36281;34.132;-118.018;2023-07-31T10:55:50;18.02;;;11.10;;
50367;SDS011;36281;34.132;-118.018;2023-07-31T10:58:22;16.95;;;10.95;;
50367;SDS011;36281;34.132;-118.018;2023-07-31T11:00:56;20.85;;;12.05;;
50367;SDS011;36281;34.132;-118.018;2023-07-31T11:03:40;16.98;;;11.65;;
50367;SDS011;36281;34.132;-118.018;2023-07-31T11:06:10;20.25;;;12.20;;
50367;SDS011;36281;34.132;-118.018;2023-07-31T11:08:45;18.90;;;10.85;;
50367;SDS011;36281;34.132;-118.018;2023-07-31T11:11:15;19.02;;;12.25;;
50367;SDS011;36281;34.132;-118.018;2023-07-31T11:13:45;18.20;;;11.20;;
50367;SDS011;36281;34.132;-118.018;2023-07-31T11:16:20;19.23;;;12.05;;
50367;SDS011;36281;34.132;-118.018;2023-07-31T11:18:52;17.98;;;11.68;;
50367;SDS011;36281;34.132;-118.018;2023-07-31T11:21:23;19.05;;;11.55;;
50367;SDS011;36281;34.132;-118.018;2023-07-31T11:23:53;21.13;;;12.20;;
50367;SDS011;36281;34.132;-118.018;2023-07-31T11:26:28;16.17;;;11.00;;
50367;SDS011;36281;34.132;-118.018;2023-07-31T11:28:58;20.50;;;11.82;;
50367;SDS011;36281;34.132;-118.018;2023-07-31T11:31:27;17.73;;;11.35;;
50367;SDS011;36281;34.132;-118.018;2023-07-31T11:34:06;18.00;;;12.02;;
50367;SDS011;36281;34.132;-118.018;2023-07-31T11:36:35;17.08;;;11.50;;
50367;SDS011;36281;34.132;-118.018;2023-07-31T11:39:05;15.32;;;10.88;;
50367;SDS011;36281;34.132;-118.018;2023-07-31T11:41:35;22.38;;;12.10;;
50367;SDS011;36281;34.132;-118.018;2023-07-31T11:44:08;16.52;;;11.38;;
50367;SDS011;36281;34.132;-118.018;2023-07-31T11:46:54;18.73;;;11.63;;
50367;SDS011;36281;34.132;-118.018;2023-07-31T11:49:27;18.17;;;11.90;;
50367;SDS011;36281;34.132;-118.018;2023-07-31T11:51:57;14.05;;;9.95;;
50367;SDS011;36281;34.132;-118.018;2023-07-31T11:54:26;14.90;;;10.70;;
50367;SDS011;36281;34.132;-118.018;2023-07-31T11:56:55;20.20;;;11.88;;
50367;SDS011;36281;34.132;-118.018;2023-07-31T11:59:25;16.65;;;10.98;;
50367;SDS011;36281;34.132;-118.018;2023-07-31T12:01:55;17.80;;;11.30;;
50367;SDS011;36281;34.132;-118.018;2023-07-31T12:04:24;18.40;;;10.98;;
50367;SDS011;36281;34.132;-118.018;2023-07-31T12:06:55;18.08;;;11.32;;
50367;SDS011;36281;34.132;-118.018;2023-07-31T12:09:24;14.90;;;11.40;;
50367;SDS011;36281;34.132;-118.018;2023-07-31T12:11:54;20.63;;;12.02;;
50367;SDS011;36281;34.132;-118.018;2023-07-31T12:14:24;17.95;;;11.85;;
50367;SDS011;36281;34.132;-118.018;2023-07-31T12:16:54;22.20;;;12.15;;
50367;SDS011;36281;34.132;-118.018;2023-07-31T12:19:25;18.08;;;11.38;;
50367;SDS011;36281;34.132;-118.018;2023-07-31T12:21:59;20.40;;;11.65;;
50367;SDS011;36281;34.132;-118.018;2023-07-31T12:24:29;17.65;;;11.20;;
50367;SDS011;36281;34.132;-118.018;2023-07-31T12:26:58;15.75;;;10.98;;
50367;SDS011;36281;34.132;-118.018;2023-07-31T12:29:33;23.08;;;12.13;;
50367;SDS011;36281;34.132;-118.018;2023-07-31T12:32:20;21.65;;;12.38;;
50367;SDS011;36281;34.132;-118.018;2023-07-31T12:34:49;18.95;;;11.50;;
50367;SDS011;36281;34.132;-118.018;2023-07-31T12:37:20;19.70;;;11.82;;
50367;SDS011;36281;34.132;-118.018;2023-07-31T12:39:49;19.67;;;11.55;;
50367;SDS011;36281;34.132;-118.018;2023-07-31T12:42:18;20.65;;;12.15;;
50367;SDS011;36281;34.132;-118.018;2023-07-31T12:44:47;18.55;;;12.02;;
50367;SDS011;36281;34.132;-118.018;2023-07-31T12:47:16;21.85;;;12.02;;
50367;SDS011;36281;34.132;-118.018;2023-07-31T12:49:45;21.23;;;12.27;;
50367;SDS011;36281;34.132;-118.018;2023-07-31T12:52:14;18.58;;;11.93;;
50367;SDS011;36281;34.132;-118.018;2023-07-31T12:54:45;21.48;;;11.85;;
50367;SDS011;36281;34.132;-118.018;2023-07-31T12:57:14;22.17;;;12.45;;
50367;SDS011;36281;34.132;-118.018;2023-07-31T12:59:43;17.92;;;11.80;;
50367;SDS011;36281;34.132;-118.018;2023-07-31T13:02:12;20.10;;;12.38;;
50367;SDS011;36281;34.132;-118.018;2023-07-31T13:04:44;19.98;;;11.50;;
50367;SDS011;36281;34.132;-118.018;2023-07-31T13:07:13;18.40;;;11.75;;
50367;SDS011;36281;34.132;-118.018;2023-07-31T13:09:42;19.20;;;12.05;;
50367;SDS011;36281;34.132;-118.018;2023-07-31T13:12:13;19.17;;;11.73;;
50367;SDS011;36281;34.132;-118.018;2023-07-31T13:14:42;19.52;;;12.20;;
50367;SDS011;36281;34.132;-118.018;2023-07-31T13:17:11;20.52;;;12.18;;
50367;SDS011;36281;34.132;-118.018;2023-07-31T13:19:40;22.45;;;11.65;;
50367;SDS011;36281;34.132;-118.018;2023-07-31T13:22:09;19.50;;;12.43;;
50367;SDS011;36281;34.132;-118.018;2023-07-31T13:24:38;17.40;;;12.05;;
50367;SDS011;36281;34.132;-118.018;2023-07-31T13:27:09;17.88;;;12.13;;
50367;SDS011;36281;34.132;-118.018;2023-07-31T13:29:38;17.95;;;12.07;;
50367;SDS011;36281;34.132;-118.018;2023-07-31T13:32:07;20.95;;;12.93;;
50367;SDS011;36281;34.132;-118.018;2023-07-31T13:34:36;17.42;;;12.05;;
50367;SDS011;36281;34.132;-118.018;2023-07-31T13:37:05;24.15;;;13.05;;
50367;SDS011;36281;34.132;-118.018;2023-07-31T13:39:34;22.50;;;12.43;;
50367;SDS011;36281;34.132;-118.018;2023-07-31T13:42:04;21.50;;;13.48;;
50367;SDS011;36281;34.132;-118.018;2023-07-31T13:44:37;19.40;;;13.35;;
50367;SDS011;36281;34.132;-118.018;2023-07-31T13:47:07;19.30;;;13.18;;
50367;SDS011;36281;34.132;-118.018;2023-07-31T13:49:37;21.35;;;12.15;;
50367;SDS011;36281;34.132;-118.018;2023-07-31T13:52:06;19.13;;;12.48;;
50367;SDS011;36281;34.132;-118.018;2023-07-31T13:54:35;21.00;;;13.18;;
50367;SDS011;36281;34.132;-118.018;2023-07-31T13:57:05;18.77;;;12.65;;
50367;SDS011;36281;34.132;-118.018;2023-07-31T13:59:34;25.20;;;13.20;;
50367;SDS011;36281;34.132;-118.018;2023-07-31T14:02:05;20.73;;;12.77;;
50367;SDS011;36281;34.132;-118.018;2023-07-31T14:04:34;21.13;;;12.90;;
50367;SDS011;36281;34.132;-118.018;2023-07-31T14:07:03;22.65;;;13.40;;
50367;SDS011;36281;34.132;-118.018;2023-07-31T14:09:33;23.20;;;13.07;;
50367;SDS011;36281;34.132;-118.018;2023-07-31T14:12:02;20.95;;;12.95;;